CheckWX is a tool to help pilots better visualize weather data.  It is not intended as a substitute for an official pre-flight weather briefing.

00:37:22 UTC

VTCP METAR
Phrae Airport
Thailand
Current

37 mins ago

VTCP 250000Z 00000KT 1800 BR NSC 16/15 Q1014 NOSIG
Observed
Feb-25 @ 00:00 UTC
Visibility
1,800 meters
Flight Rules
IFR
Conditions
Mist
Cloud Levels
  • Clear skies
Temperature
16°C / 61°F
Dewpoint
15°C / 59°F
Humidity
94%
Altimeter
29.94" Hg
Pressure
1013.92 hPa
Previous

14 hours ago

VTCP 241100Z VRB02KT 6000 NSC 32/14 Q1010 NOSIG
Observed
Feb-24 @ 11:00 UTC
Wind
  • Variable at 2 KTS
Visibility
6,000 meters
Flight Rules
MVFR
Cloud Levels
  • Clear skies
Temperature
32°C / 90°F
Dewpoint
14°C / 57°F
Humidity
33%
Altimeter
29.82" Hg
Pressure
1009.92 hPa
Previous

15 hours ago

VTCP 241000Z 26004KT 210V310 7000 NSC 34/12 Q1010 NOSIG
Observed
Feb-24 @ 10:00 UTC
Wind
  • 260° at 4 KTS
Visibility
7,000 meters
Flight Rules
MVFR
Cloud Levels
  • Clear skies
Temperature
34°C / 93°F
Dewpoint
12°C / 54°F
Humidity
26%
Altimeter
29.82" Hg
Pressure
1009.92 hPa